createdAt,value
2023-03-23T15:59:04.857Z,4.50
2023-03-23T16:01:22.100Z,2.60
2023-03-23T16:03:40.217Z,6.50
2023-03-23T16:05:53.528Z,4.30
2023-03-23T16:08:06.576Z,5.70
2023-03-23T16:10:26.276Z,6.00
2023-03-23T16:12:40.096Z,1.70
2023-03-23T16:14:52.816Z,3.10
2023-03-23T16:17:05.813Z,2.10
2023-03-23T16:19:25.668Z,6.10
2023-03-23T16:21:38.851Z,7.40
2023-03-23T16:23:52.699Z,4.20
2023-03-23T16:26:06.157Z,9.40
2023-03-23T16:28:21.847Z,8.30
2023-03-23T16:30:38.734Z,4.60
2023-03-23T16:32:53.676Z,1.50
2023-03-23T16:35:08.440Z,1.40
2023-03-23T16:37:22.504Z,3.10
2023-03-23T16:39:35.793Z,5.30
2023-03-23T16:41:49.157Z,2.80
2023-03-23T16:44:02.390Z,1.10
2023-03-23T16:46:16.863Z,0.90
2023-03-23T16:48:30.153Z,1.30
2023-03-23T16:50:44.127Z,6.90
2023-03-23T16:52:58.033Z,9.30
2023-03-23T16:55:12.102Z,14.10
2023-03-23T16:57:26.431Z,5.90
2023-03-23T16:59:39.362Z,15.10
2023-03-23T17:01:53.131Z,10.40
2023-03-23T17:04:07.261Z,9.80
2023-03-23T17:06:20.713Z,7.00
2023-03-23T17:08:34.033Z,13.20
2023-03-23T17:10:47.476Z,11.50
2023-03-23T17:13:00.658Z,11.90
2023-03-23T17:15:15.211Z,9.90
2023-03-23T17:17:29.013Z,12.40
2023-03-23T17:19:42.112Z,21.40
2023-03-23T17:21:55.292Z,11.20
2023-03-23T17:24:08.744Z,13.30
2023-03-23T17:26:22.033Z,14.10
2023-03-23T17:28:35.627Z,7.10
2023-03-23T17:30:49.554Z,12.60
2023-03-23T20:01:09.060Z,20.60
2023-03-23T20:03:23.020Z,20.10
2023-03-23T20:05:38.045Z,20.60
2023-03-23T20:07:51.971Z,23.80
2023-03-23T20:10:06.168Z,29.80
2023-03-23T20:12:21.215Z,21.90
2023-03-23T20:14:34.760Z,12.70
2023-03-23T20:16:48.185Z,38.70
2023-03-23T20:19:02.916Z,26.80
2023-03-23T20:21:20.165Z,20.80
2023-03-23T20:23:33.449Z,30.20
2023-03-23T20:25:46.847Z,28.50
2023-03-23T20:28:00.858Z,27.20
2023-03-23T20:30:16.966Z,25.40
2023-03-23T20:32:30.168Z,29.90
2023-03-23T20:34:42.957Z,8.60
2023-03-23T20:36:57.047Z,22.80
2023-03-23T20:39:12.676Z,24.90
2023-03-23T20:41:27.027Z,23.80
2023-03-23T20:43:40.350Z,26.20
2023-03-23T20:45:53.331Z,11.90
2023-03-23T20:48:06.888Z,20.10
2023-03-23T20:50:19.977Z,25.90
2023-03-23T20:52:32.953Z,18.70
2023-03-23T20:54:45.798Z,20.80
2023-03-23T20:57:00.866Z,22.20
2023-03-23T20:59:15.226Z,24.10
2023-03-23T21:01:29.408Z,28.60
2023-03-23T21:03:44.638Z,23.60
2023-03-23T21:05:57.860Z,30.30
2023-03-23T21:08:12.479Z,11.10
2023-03-23T21:10:26.769Z,14.40
2023-03-23T21:12:40.099Z,15.90
2023-03-23T21:14:53.420Z,22.90
2023-03-23T21:17:07.270Z,17.70
2023-03-23T21:19:21.142Z,21.60
2023-03-23T21:21:35.442Z,13.80
2023-03-23T21:23:53.693Z,26.40
2023-03-23T21:26:11.626Z,27.90
2023-03-23T21:28:25.125Z,25.20
2023-03-23T21:30:43.452Z,15.80
2023-03-23T21:32:58.068Z,17.40
2023-03-23T21:35:11.562Z,15.70
2023-03-23T21:37:24.982Z,20.90
2023-03-23T21:39:38.498Z,12.70
2023-03-23T21:41:52.030Z,11.30
2023-03-23T21:44:11.573Z,6.80
2023-03-23T21:46:26.075Z,21.20
2023-03-23T21:48:42.759Z,12.50
2023-03-23T21:50:56.771Z,24.00
2023-03-23T21:53:13.929Z,24.10
2023-03-23T21:55:30.741Z,25.00
2023-03-23T21:57:44.741Z,30.30
2023-03-23T21:59:57.986Z,25.80
2023-03-23T22:02:14.618Z,32.00
2023-03-23T22:04:28.960Z,15.00
2023-03-23T22:06:43.527Z,16.80
2023-03-23T22:08:57.777Z,19.70
2023-03-23T22:11:14.004Z,15.90
2023-03-23T22:13:27.676Z,21.40
2023-03-23T22:15:40.549Z,23.40
2023-03-23T22:17:53.336Z,38.20
2023-03-23T22:20:08.955Z,19.50
2023-03-23T22:22:22.489Z,47.60
2023-03-23T22:24:35.626Z,38.50
2023-03-23T22:26:48.651Z,24.20
2023-03-23T22:29:03.371Z,29.90
2023-03-23T22:31:19.644Z,26.80
2023-03-23T22:33:33.323Z,32.80
2023-03-23T22:35:48.005Z,28.90
2023-03-23T22:38:03.677Z,30.70
2023-03-23T22:40:17.289Z,24.20
2023-03-23T22:42:31.405Z,37.20
2023-03-23T22:44:44.176Z,20.30
2023-03-23T22:46:57.077Z,46.40
2023-03-23T22:49:09.978Z,23.10
2023-03-23T22:51:24.600Z,33.90
2023-03-23T22:53:38.160Z,34.60
2023-03-23T22:55:52.471Z,31.20
2023-03-23T22:58:05.957Z,25.80
2023-03-23T23:00:20.858Z,28.90
2023-03-23T23:02:34.552Z,15.40
2023-03-23T23:04:48.078Z,42.60
2023-03-23T23:07:10.453Z,20.10
2023-03-23T23:09:26.277Z,29.60
2023-03-23T23:11:39.322Z,31.00
2023-03-23T23:13:53.027Z,19.60
2023-03-23T23:16:08.533Z,17.30
2023-03-23T23:18:22.166Z,15.40
2023-03-23T23:20:35.097Z,16.80
2023-03-23T23:22:48.341Z,7.10
2023-03-23T23:25:01.457Z,7.80
2023-03-23T23:27:14.455Z,10.80
2023-03-23T23:29:31.630Z,13.10
2023-03-23T23:31:48.989Z,10.60
2023-03-23T23:34:04.042Z,8.50
2023-03-23T23:36:22.564Z,23.00
2023-03-23T23:38:36.537Z,17.90
2023-03-23T23:40:51.388Z,12.60
2023-03-23T23:43:05.817Z,17.90
2023-03-23T23:45:22.652Z,27.70
2023-03-23T23:47:38.525Z,18.00
2023-03-23T23:49:58.206Z,16.80
2023-03-23T23:52:11.708Z,14.10
2023-03-23T23:54:24.725Z,16.40
2023-03-23T23:56:40.126Z,19.80
2023-03-23T23:58:54.802Z,24.20
